sensor_id;sensor_type;location;lat;lon;timestamp;temperature;humidity
14138;DHT22;8199;51.310;9.466;2023-09-08T00:01:48;26.60;51.60
14138;DHT22;8199;51.310;9.466;2023-09-08T00:04:13;26.50;51.70
14138;DHT22;8199;51.310;9.466;2023-09-08T00:06:40;26.50;51.70
14138;DHT22;8199;51.310;9.466;2023-09-08T00:09:07;26.50;51.70
14138;DHT22;8199;51.310;9.466;2023-09-08T00:11:32;26.50;51.70
14138;DHT22;8199;51.310;9.466;2023-09-08T00:13:58;26.50;51.70
14138;DHT22;8199;51.310;9.466;2023-09-08T00:16:23;26.40;51.70
14138;DHT22;8199;51.310;9.466;2023-09-08T00:18:49;26.50;51.60
14138;DHT22;8199;51.310;9.466;2023-09-08T00:21:15;26.50;51.50
14138;DHT22;8199;51.310;9.466;2023-09-08T00:23:40;26.50;51.40
14138;DHT22;8199;51.310;9.466;2023-09-08T00:26:06;26.50;51.30
14138;DHT22;8199;51.310;9.466;2023-09-08T00:28:31;26.40;51.40
14138;DHT22;8199;51.310;9.466;2023-09-08T00:30:58;26.40;51.40
14138;DHT22;8199;51.310;9.466;2023-09-08T00:33:25;26.40;51.60
14138;DHT22;8199;51.310;9.466;2023-09-08T00:35:51;26.40;51.50
14138;DHT22;8199;51.310;9.466;2023-09-08T00:38:17;26.40;51.60
14138;DHT22;8199;51.310;9.466;2023-09-08T00:40:42;26.40;51.50
14138;DHT22;8199;51.310;9.466;2023-09-08T00:43:08;26.40;51.40
14138;DHT22;8199;51.310;9.466;2023-09-08T00:45:40;26.30;51.40
14138;DHT22;8199;51.310;9.466;2023-09-08T00:48:07;26.40;51.30
14138;DHT22;8199;51.310;9.466;2023-09-08T00:50:34;26.30;51.40
14138;DHT22;8199;51.310;9.466;2023-09-08T00:52:59;26.30;51.50
14138;DHT22;8199;51.310;9.466;2023-09-08T00:55:25;26.30;51.50
14138;DHT22;8199;51.310;9.466;2023-09-08T00:57:51;26.30;51.70
14138;DHT22;8199;51.310;9.466;2023-09-08T01:00:16;26.30;51.50
14138;DHT22;8199;51.310;9.466;2023-09-08T01:02:42;26.30;51.40
14138;DHT22;8199;51.310;9.466;2023-09-08T01:05:10;26.30;51.40
14138;DHT22;8199;51.310;9.466;2023-09-08T01:07:36;26.40;51.30
14138;DHT22;8199;51.310;9.466;2023-09-08T01:10:02;26.30;51.40
14138;DHT22;8199;51.310;9.466;2023-09-08T01:12:32;26.40;51.10
14138;DHT22;8199;51.310;9.466;2023-09-08T01:14:58;26.20;51.30
14138;DHT22;8199;51.310;9.466;2023-09-08T01:17:25;26.10;51.60
14138;DHT22;8199;51.310;9.466;2023-09-08T01:19:55;26.10;51.60
14138;DHT22;8199;51.310;9.466;2023-09-08T01:22:44;26.10;51.60
14138;DHT22;8199;51.310;9.466;2023-09-08T01:25:26;26.30;51.30
14138;DHT22;8199;51.310;9.466;2023-09-08T01:27:54;26.20;51.30
14138;DHT22;8199;51.310;9.466;2023-09-08T01:30:21;26.10;51.50
14138;DHT22;8199;51.310;9.466;2023-09-08T01:32:49;26.10;51.60
14138;DHT22;8199;51.310;9.466;2023-09-08T01:35:15;26.10;51.50
14138;DHT22;8199;51.310;9.466;2023-09-08T01:37:44;26.00;51.70
14138;DHT22;8199;51.310;9.466;2023-09-08T01:40:10;26.00;51.50
14138;DHT22;8199;51.310;9.466;2023-09-08T01:42:37;26.10;51.60
14138;DHT22;8199;51.310;9.466;2023-09-08T01:45:03;26.10;51.60
14138;DHT22;8199;51.310;9.466;2023-09-08T01:47:29;26.10;51.50
14138;DHT22;8199;51.310;9.466;2023-09-08T01:49:55;26.00;51.60
14138;DHT22;8199;51.310;9.466;2023-09-08T01:52:20;26.00;51.50
14138;DHT22;8199;51.310;9.466;2023-09-08T01:54:46;26.10;51.30
14138;DHT22;8199;51.310;9.466;2023-09-08T01:57:11;26.00;51.50
14138;DHT22;8199;51.310;9.466;2023-09-08T01:59:37;26.10;51.40
14138;DHT22;8199;51.310;9.466;2023-09-08T02:02:03;26.20;51.10
14138;DHT22;8199;51.310;9.466;2023-09-08T02:04:29;26.20;50.90
14138;DHT22;8199;51.310;9.466;2023-09-08T02:06:54;26.20;51.10
14138;DHT22;8199;51.310;9.466;2023-09-08T02:09:20;26.20;51.10
14138;DHT22;8199;51.310;9.466;2023-09-08T02:11:45;26.10;51.10
14138;DHT22;8199;51.310;9.466;2023-09-08T02:14:11;26.10;51.00
14138;DHT22;8199;51.310;9.466;2023-09-08T02:16:36;26.00;51.10
14138;DHT22;8199;51.310;9.466;2023-09-08T02:19:02;26.00;51.00
14138;DHT22;8199;51.310;9.466;2023-09-08T02:21:27;26.00;51.30
14138;DHT22;8199;51.310;9.466;2023-09-08T02:23:53;26.00;51.40
14138;DHT22;8199;51.310;9.466;2023-09-08T02:26:19;25.90;51.50
14138;DHT22;8199;51.310;9.466;2023-09-08T02:28:44;25.90;51.20
14138;DHT22;8199;51.310;9.466;2023-09-08T02:31:10;25.80;51.40
14138;DHT22;8199;51.310;9.466;2023-09-08T02:33:35;25.90;51.30
14138;DHT22;8199;51.310;9.466;2023-09-08T02:36:05;25.90;51.00
14138;DHT22;8199;51.310;9.466;2023-09-08T02:38:32;25.90;50.90
14138;DHT22;8199;51.310;9.466;2023-09-08T02:40:57;26.00;50.90
14138;DHT22;8199;51.310;9.466;2023-09-08T02:43:23;25.80;51.10
14138;DHT22;8199;51.310;9.466;2023-09-08T02:45:49;25.80;51.30
14138;DHT22;8199;51.310;9.466;2023-09-08T02:48:15;25.80;51.30
14138;DHT22;8199;51.310;9.466;2023-09-08T02:50:42;25.90;51.20
14138;DHT22;8199;51.310;9.466;2023-09-08T02:53:07;25.80;51.20
14138;DHT22;8199;51.310;9.466;2023-09-08T02:55:33;25.80;51.20
14138;DHT22;8199;51.310;9.466;2023-09-08T02:57:58;25.80;51.00
14138;DHT22;8199;51.310;9.466;2023-09-08T03:00:24;25.80;51.00
14138;DHT22;8199;51.310;9.466;2023-09-08T03:02:50;25.70;51.20
14138;DHT22;8199;51.310;9.466;2023-09-08T03:05:15;25.70;51.30
14138;DHT22;8199;51.310;9.466;2023-09-08T03:07:41;25.70;51.40
14138;DHT22;8199;51.310;9.466;2023-09-08T03:10:07;25.70;51.20
14138;DHT22;8199;51.310;9.466;2023-09-08T03:12:32;25.70;51.30
14138;DHT22;8199;51.310;9.466;2023-09-08T03:15:00;25.80;51.10
14138;DHT22;8199;51.310;9.466;2023-09-08T03:17:25;25.90;50.80
14138;DHT22;8199;51.310;9.466;2023-09-08T03:19:51;25.70;50.90
14138;DHT22;8199;51.310;9.466;2023-09-08T03:22:16;25.80;50.80
14138;DHT22;8199;51.310;9.466;2023-09-08T03:24:42;25.70;50.90
14138;DHT22;8199;51.310;9.466;2023-09-08T03:27:07;25.80;50.80
14138;DHT22;8199;51.310;9.466;2023-09-08T03:29:33;25.70;50.80
14138;DHT22;8199;51.310;9.466;2023-09-08T03:31:59;25.60;51.00
14138;DHT22;8199;51.310;9.466;2023-09-08T03:34:24;25.60;51.20
14138;DHT22;8199;51.310;9.466;2023-09-08T03:36:51;25.70;51.00
14138;DHT22;8199;51.310;9.466;2023-09-08T03:39:17;25.70;51.10
14138;DHT22;8199;51.310;9.466;2023-09-08T03:41:45;25.70;50.90
14138;DHT22;8199;51.310;9.466;2023-09-08T03:44:10;25.80;50.70
14138;DHT22;8199;51.310;9.466;2023-09-08T03:46:36;25.70;50.70
14138;DHT22;8199;51.310;9.466;2023-09-08T03:49:02;25.70;50.60
14138;DHT22;8199;51.310;9.466;2023-09-08T03:51:28;25.60;50.90
14138;DHT22;8199;51.310;9.466;2023-09-08T03:53:54;25.70;50.70
14138;DHT22;8199;51.310;9.466;2023-09-08T03:56:19;25.70;50.80
14138;DHT22;8199;51.310;9.466;2023-09-08T03:58:48;25.50;50.90
14138;DHT22;8199;51.310;9.466;2023-09-08T04:01:13;25.50;51.10
14138;DHT22;8199;51.310;9.466;2023-09-08T04:03:39;25.50;51.20
14138;DHT22;8199;51.310;9.466;2023-09-08T04:06:04;25.60;50.80
14138;DHT22;8199;51.310;9.466;2023-09-08T04:08:30;25.70;50.70
14138;DHT22;8199;51.310;9.466;2023-09-08T04:10:56;25.60;51.00
14138;DHT22;8199;51.310;9.466;2023-09-08T04:13:21;25.50;50.90
14138;DHT22;8199;51.310;9.466;2023-09-08T04:15:47;25.60;51.00
14138;DHT22;8199;51.310;9.466;2023-09-08T04:18:12;25.60;50.90
14138;DHT22;8199;51.310;9.466;2023-09-08T04:20:38;25.70;51.00
14138;DHT22;8199;51.310;9.466;2023-09-08T04:23:03;25.60;50.80
14138;DHT22;8199;51.310;9.466;2023-09-08T04:25:29;25.70;50.80
14138;DHT22;8199;51.310;9.466;2023-09-08T04:27:54;25.50;50.90
14138;DHT22;8199;51.310;9.466;2023-09-08T04:30:20;25.60;50.90
14138;DHT22;8199;51.310;9.466;2023-09-08T04:32:46;25.60;50.70
14138;DHT22;8199;51.310;9.466;2023-09-08T04:35:12;25.60;51.00
14138;DHT22;8199;51.310;9.466;2023-09-08T04:37:37;25.60;50.60
14138;DHT22;8199;51.310;9.466;2023-09-08T04:40:05;25.60;50.60
14138;DHT22;8199;51.310;9.466;2023-09-08T04:42:30;25.50;50.70
14138;DHT22;8199;51.310;9.466;2023-09-08T04:44:56;25.60;50.60
14138;DHT22;8199;51.310;9.466;2023-09-08T04:47:22;25.70;50.50
14138;DHT22;8199;51.310;9.466;2023-09-08T04:49:47;25.60;50.70
14138;DHT22;8199;51.310;9.466;2023-09-08T04:52:13;25.60;50.70
14138;DHT22;8199;51.310;9.466;2023-09-08T04:54:39;25.50;50.70
14138;DHT22;8199;51.310;9.466;2023-09-08T04:57:04;25.50;50.70
14138;DHT22;8199;51.310;9.466;2023-09-08T04:59:30;25.60;50.70
14138;DHT22;8199;51.310;9.466;2023-09-08T05:01:56;25.60;50.70
14138;DHT22;8199;51.310;9.466;2023-09-08T05:04:22;25.50;50.70
14138;DHT22;8199;51.310;9.466;2023-09-08T05:06:47;25.40;51.20
14138;DHT22;8199;51.310;9.466;2023-09-08T05:09:13;25.50;51.00
14138;DHT22;8199;51.310;9.466;2023-09-08T05:11:39;25.50;50.60
14138;DHT22;8199;51.310;9.466;2023-09-08T05:14:04;25.40;50.80
14138;DHT22;8199;51.310;9.466;2023-09-08T05:16:30;25.40;50.70
14138;DHT22;8199;51.310;9.466;2023-09-08T05:19:06;25.50;50.70
14138;DHT22;8199;51.310;9.466;2023-09-08T05:21:32;25.50;50.80
14138;DHT22;8199;51.310;9.466;2023-09-08T05:23:57;25.50;51.60
14138;DHT22;8199;51.310;9.466;2023-09-08T05:26:23;25.70;51.00
14138;DHT22;8199;51.310;9.466;2023-09-08T05:28:49;25.90;50.80
14138;DHT22;8199;51.310;9.466;2023-09-08T05:31:14;26.00;51.00
14138;DHT22;8199;51.310;9.466;2023-09-08T05:33:40;26.00;51.10
14138;DHT22;8199;51.310;9.466;2023-09-08T05:36:06;26.10;51.10
14138;DHT22;8199;51.310;9.466;2023-09-08T05:38:31;26.20;51.00
14138;DHT22;8199;51.310;9.466;2023-09-08T05:40:57;26.20;51.00
14138;DHT22;8199;51.310;9.466;2023-09-08T05:43:26;26.20;51.10
14138;DHT22;8199;51.310;9.466;2023-09-08T05:45:51;26.20;51.20
14138;DHT22;8199;51.310;9.466;2023-09-08T05:48:17;26.30;51.30
14138;DHT22;8199;51.310;9.466;2023-09-08T05:50:42;26.20;51.30
14138;DHT22;8199;51.310;9.466;2023-09-08T05:53:08;26.30;51.30
14138;DHT22;8199;51.310;9.466;2023-09-08T05:55:34;26.30;51.40
14138;DHT22;8199;51.310;9.466;2023-09-08T05:57:59;26.30;51.90
14138;DHT22;8199;51.310;9.466;2023-09-08T06:00:25;26.30;51.40
14138;DHT22;8199;51.310;9.466;2023-09-08T06:02:50;26.30;51.50
14138;DHT22;8199;51.310;9.466;2023-09-08T06:05:17;26.30;51.50
14138;DHT22;8199;51.310;9.466;2023-09-08T06:07:43;26.30;51.60
14138;DHT22;8199;51.310;9.466;2023-09-08T06:10:08;26.30;51.50
14138;DHT22;8199;51.310;9.466;2023-09-08T06:12:34;26.30;51.60
14138;DHT22;8199;51.310;9.466;2023-09-08T06:15:01;26.30;51.80
14138;DHT22;8199;51.310;9.466;2023-09-08T06:17:27;26.30;52.00
14138;DHT22;8199;51.310;9.466;2023-09-08T06:19:52;26.30;52.10
14138;DHT22;8199;51.310;9.466;2023-09-08T06:22:18;26.20;52.10
14138;DHT22;8199;51.310;9.466;2023-09-08T06:24:43;26.30;52.10
14138;DHT22;8199;51.310;9.466;2023-09-08T06:27:09;26.30;52.00
14138;DHT22;8199;51.310;9.466;2023-09-08T06:29:36;26.20;52.30
14138;DHT22;8199;51.310;9.466;2023-09-08T06:32:02;26.30;52.10
14138;DHT22;8199;51.310;9.466;2023-09-08T06:34:28;26.30;52.00
14138;DHT22;8199;51.310;9.466;2023-09-08T06:36:53;26.40;52.20
14138;DHT22;8199;51.310;9.466;2023-09-08T06:39:19;26.30;52.50
14138;DHT22;8199;51.310;9.466;2023-09-08T06:41:44;26.30;52.70
14138;DHT22;8199;51.310;9.466;2023-09-08T06:44:10;26.30;52.70
14138;DHT22;8199;51.310;9.466;2023-09-08T06:46:35;26.30;52.60
14138;DHT22;8199;51.310;9.466;2023-09-08T06:49:01;26.30;52.50
14138;DHT22;8199;51.310;9.466;2023-09-08T06:51:26;26.30;52.70
14138;DHT22;8199;51.310;9.466;2023-09-08T06:53:56;26.30;52.70
14138;DHT22;8199;51.310;9.466;2023-09-08T06:56:22;26.30;52.70
14138;DHT22;8199;51.310;9.466;2023-09-08T06:58:47;26.30;52.60
14138;DHT22;8199;51.310;9.466;2023-09-08T07:01:13;26.40;52.80
14138;DHT22;8199;51.310;9.466;2023-09-08T07:03:38;26.30;52.70
14138;DHT22;8199;51.310;9.466;2023-09-08T07:06:04;26.40;52.80
14138;DHT22;8199;51.310;9.466;2023-09-08T07:08:30;26.40;52.70
14138;DHT22;8199;51.310;9.466;2023-09-08T07:10:55;26.40;52.60
14138;DHT22;8199;51.310;9.466;2023-09-08T07:13:21;26.40;52.70
14138;DHT22;8199;51.310;9.466;2023-09-08T07:15:47;26.40;52.70
14138;DHT22;8199;51.310;9.466;2023-09-08T07:18:12;26.40;52.70
14138;DHT22;8199;51.310;9.466;2023-09-08T07:20:38;26.40;52.60
14138;DHT22;8199;51.310;9.466;2023-09-08T07:23:03;26.40;52.50
14138;DHT22;8199;51.310;9.466;2023-09-08T07:25:29;26.40;52.50
14138;DHT22;8199;51.310;9.466;2023-09-08T07:27:54;26.40;52.60
14138;DHT22;8199;51.310;9.466;2023-09-08T07:30:20;26.30;52.50
14138;DHT22;8199;51.310;9.466;2023-09-08T07:32:46;26.30;52.50
14138;DHT22;8199;51.310;9.466;2023-09-08T07:35:12;26.30;52.50
14138;DHT22;8199;51.310;9.466;2023-09-08T07:37:40;26.30;52.50
14138;DHT22;8199;51.310;9.466;2023-09-08T07:40:08;26.40;52.60
14138;DHT22;8199;51.310;9.466;2023-09-08T07:42:34;26.40;52.50
14138;DHT22;8199;51.310;9.466;2023-09-08T07:44:59;26.40;52.50
14138;DHT22;8199;51.310;9.466;2023-09-08T07:47:25;26.40;52.40
14138;DHT22;8199;51.310;9.466;2023-09-08T07:49:51;26.40;52.40
14138;DHT22;8199;51.310;9.466;2023-09-08T07:52:16;26.40;52.50
14138;DHT22;8199;51.310;9.466;2023-09-08T07:54:42;26.40;52.90
14138;DHT22;8199;51.310;9.466;2023-09-08T07:57:07;26.40;52.40
14138;DHT22;8199;51.310;9.466;2023-09-08T07:59:33;26.40;52.40
14138;DHT22;8199;51.310;9.466;2023-09-08T08:01:58;26.40;52.40
14138;DHT22;8199;51.310;9.466;2023-09-08T08:04:24;26.40;52.40
14138;DHT22;8199;51.310;9.466;2023-09-08T08:06:50;26.50;52.50
14138;DHT22;8199;51.310;9.466;2023-09-08T08:09:15;26.50;52.40
14138;DHT22;8199;51.310;9.466;2023-09-08T08:11:41;26.60;52.30
14138;DHT22;8199;51.310;9.466;2023-09-08T08:14:07;26.60;52.30
14138;DHT22;8199;51.310;9.466;2023-09-08T08:16:32;26.50;52.30
14138;DHT22;8199;51.310;9.466;2023-09-08T08:18:58;26.50;52.30
14138;DHT22;8199;51.310;9.466;2023-09-08T08:21:24;26.50;52.30
14138;DHT22;8199;51.310;9.466;2023-09-08T08:23:50;26.60;52.30
14138;DHT22;8199;51.310;9.466;2023-09-08T08:26:16;26.60;52.30
14138;DHT22;8199;51.310;9.466;2023-09-08T08:28:43;26.60;52.30
14138;DHT22;8199;51.310;9.466;2023-09-08T08:31:08;26.60;52.30
14138;DHT22;8199;51.310;9.466;2023-09-08T08:33:34;26.60;52.30
14138;DHT22;8199;51.310;9.466;2023-09-08T08:35:59;26.60;52.20
14138;DHT22;8199;51.310;9.466;2023-09-08T08:38:26;26.60;52.20
14138;DHT22;8199;51.310;9.466;2023-09-08T08:40:51;26.60;52.30
14138;DHT22;8199;51.310;9.466;2023-09-08T08:43:17;26.60;52.30
14138;DHT22;8199;51.310;9.466;2023-09-08T08:45:43;26.60;52.30
14138;DHT22;8199;51.310;9.466;2023-09-08T08:48:09;26.70;52.10
14138;DHT22;8199;51.310;9.466;2023-09-08T08:50:36;26.70;52.20
14138;DHT22;8199;51.310;9.466;2023-09-08T08:53:03;26.70;52.20
14138;DHT22;8199;51.310;9.466;2023-09-08T08:55:30;26.70;52.30
14138;DHT22;8199;51.310;9.466;2023-09-08T08:58:02;26.60;52.30
14138;DHT22;8199;51.310;9.466;2023-09-08T09:00:28;26.70;52.30
14138;DHT22;8199;51.310;9.466;2023-09-08T09:02:54;26.70;52.20
14138;DHT22;8199;51.310;9.466;2023-09-08T09:05:21;26.70;52.20
14138;DHT22;8199;51.310;9.466;2023-09-08T09:07:48;26.70;52.20
14138;DHT22;8199;51.310;9.466;2023-09-08T09:10:15;26.80;52.20
14138;DHT22;8199;51.310;9.466;2023-09-08T09:12:41;26.80;52.30
14138;DHT22;8199;51.310;9.466;2023-09-08T09:15:07;26.80;52.20
14138;DHT22;8199;51.310;9.466;2023-09-08T09:17:34;26.80;52.20
14138;DHT22;8199;51.310;9.466;2023-09-08T09:20:17;26.90;52.10
14138;DHT22;8199;51.310;9.466;2023-09-08T09:22:43;26.90;52.10
14138;DHT22;8199;51.310;9.466;2023-09-08T09:25:09;26.90;52.10
14138;DHT22;8199;51.310;9.466;2023-09-08T09:27:36;26.90;52.10
14138;DHT22;8199;51.310;9.466;2023-09-08T09:30:04;26.90;52.10
14138;DHT22;8199;51.310;9.466;2023-09-08T09:32:30;26.90;52.20
14138;DHT22;8199;51.310;9.466;2023-09-08T09:34:57;26.90;52.10
14138;DHT22;8199;51.310;9.466;2023-09-08T09:37:23;26.90;52.10
14138;DHT22;8199;51.310;9.466;2023-09-08T09:39:50;26.90;52.10
14138;DHT22;8199;51.310;9.466;2023-09-08T09:42:16;26.90;52.20
14138;DHT22;8199;51.310;9.466;2023-09-08T09:44:42;26.90;52.10
14138;DHT22;8199;51.310;9.466;2023-09-08T09:47:08;26.90;52.20
14138;DHT22;8199;51.310;9.466;2023-09-08T09:49:44;26.90;52.20
14138;DHT22;8199;51.310;9.466;2023-09-08T09:52:20;26.90;52.20
14138;DHT22;8199;51.310;9.466;2023-09-08T09:54:46;26.90;52.30
14138;DHT22;8199;51.310;9.466;2023-09-08T09:57:14;26.90;52.20
14138;DHT22;8199;51.310;9.466;2023-09-08T09:59:41;26.90;52.20
14138;DHT22;8199;51.310;9.466;2023-09-08T10:02:13;27.00;52.20
14138;DHT22;8199;51.310;9.466;2023-09-08T10:04:42;26.90;52.20
14138;DHT22;8199;51.310;9.466;2023-09-08T10:07:08;27.00;52.20
14138;DHT22;8199;51.310;9.466;2023-09-08T10:09:36;27.00;52.20
14138;DHT22;8199;51.310;9.466;2023-09-08T10:12:05;27.00;52.10
14138;DHT22;8199;51.310;9.466;2023-09-08T10:14:41;27.10;52.10
14138;DHT22;8199;51.310;9.466;2023-09-08T10:17:12;27.10;52.00
14138;DHT22;8199;51.310;9.466;2023-09-08T10:19:40;27.20;52.00
14138;DHT22;8199;51.310;9.466;2023-09-08T10:22:12;27.10;52.00
14138;DHT22;8199;51.310;9.466;2023-09-08T10:24:40;27.20;52.00
14138;DHT22;8199;51.310;9.466;2023-09-08T10:27:11;27.20;52.00
14138;DHT22;8199;51.310;9.466;2023-09-08T10:29:38;27.20;52.00
14138;DHT22;8199;51.310;9.466;2023-09-08T10:32:06;27.20;52.00
14138;DHT22;8199;51.310;9.466;2023-09-08T10:34:34;27.20;52.00
14138;DHT22;8199;51.310;9.466;2023-09-08T10:37:00;27.20;52.10
14138;DHT22;8199;51.310;9.466;2023-09-08T10:39:36;27.20;52.20
14138;DHT22;8199;51.310;9.466;2023-09-08T10:42:33;27.10;52.40
14138;DHT22;8199;51.310;9.466;2023-09-08T10:45:01;27.10;52.60
14138;DHT22;8199;51.310;9.466;2023-09-08T10:47:41;27.20;52.40
14138;DHT22;8199;51.310;9.466;2023-09-08T10:50:20;27.20;52.30
14138;DHT22;8199;51.310;9.466;2023-09-08T10:53:16;27.20;52.10
14138;DHT22;8199;51.310;9.466;2023-09-08T10:55:50;27.30;52.00
14138;DHT22;8199;51.310;9.466;2023-09-08T10:58:30;27.30;52.00
14138;DHT22;8199;51.310;9.466;2023-09-08T11:00:59;27.30;52.00
14138;DHT22;8199;51.310;9.466;2023-09-08T11:06:06;27.30;52.00
14138;DHT22;8199;51.310;9.466;2023-09-08T11:08:33;27.30;52.10
14138;DHT22;8199;51.310;9.466;2023-09-08T11:10:59;27.20;52.10
14138;DHT22;8199;51.310;9.466;2023-09-08T11:13:26;27.20;52.10
14138;DHT22;8199;51.310;9.466;2023-09-08T11:15:54;27.30;52.00
14138;DHT22;8199;51.310;9.466;2023-09-08T11:18:29;27.30;52.00
14138;DHT22;8199;51.310;9.466;2023-09-08T11:20:56;27.30;52.00
14138;DHT22;8199;51.310;9.466;2023-09-08T11:23:23;27.30;52.00
14138;DHT22;8199;51.310;9.466;2023-09-08T11:25:50;27.30;52.20
14138;DHT22;8199;51.310;9.466;2023-09-08T11:28:17;27.30;52.60
14138;DHT22;8199;51.310;9.466;2023-09-08T11:30:43;27.30;52.20
14138;DHT22;8199;51.310;9.466;2023-09-08T11:33:19;27.30;52.30
14138;DHT22;8199;51.310;9.466;2023-09-08T11:35:47;27.30;52.20
14138;DHT22;8199;51.310;9.466;2023-09-08T11:38:13;27.40;52.10
14138;DHT22;8199;51.310;9.466;2023-09-08T11:40:39;27.30;52.10
14138;DHT22;8199;51.310;9.466;2023-09-08T11:43:06;27.30;52.20
14138;DHT22;8199;51.310;9.466;2023-09-08T11:45:35;27.30;52.30
14138;DHT22;8199;51.310;9.466;2023-09-08T11:48:01;27.30;52.60
14138;DHT22;8199;51.310;9.466;2023-09-08T11:50:27;27.40;52.20
14138;DHT22;8199;51.310;9.466;2023-09-08T11:52:53;27.40;52.20
14138;DHT22;8199;51.310;9.466;2023-09-08T11:55:21;27.40;52.10
14138;DHT22;8199;51.310;9.466;2023-09-08T11:57:49;27.30;52.10
14138;DHT22;8199;51.310;9.466;2023-09-08T12:00:17;27.30;52.20
14138;DHT22;8199;51.310;9.466;2023-09-08T12:02:45;27.30;52.20
14138;DHT22;8199;51.310;9.466;2023-09-08T12:05:12;27.30;52.30
14138;DHT22;8199;51.310;9.466;2023-09-08T12:07:39;27.30;52.30
14138;DHT22;8199;51.310;9.466;2023-09-08T12:10:09;27.30;52.30
14138;DHT22;8199;51.310;9.466;2023-09-08T12:12:42;27.30;52.40
14138;DHT22;8199;51.310;9.466;2023-09-08T12:15:08;27.30;52.20
14138;DHT22;8199;51.310;9.466;2023-09-08T12:17:49;27.30;52.20
14138;DHT22;8199;51.310;9.466;2023-09-08T12:20:15;27.30;52.40
14138;DHT22;8199;51.310;9.466;2023-09-08T12:22:50;27.30;52.40
14138;DHT22;8199;51.310;9.466;2023-09-08T12:25:16;27.30;52.40
14138;DHT22;8199;51.310;9.466;2023-09-08T12:27:42;27.30;52.30
14138;DHT22;8199;51.310;9.466;2023-09-08T12:30:08;27.40;52.30
14138;DHT22;8199;51.310;9.466;2023-09-08T12:32:35;27.40;52.30
14138;DHT22;8199;51.310;9.466;2023-09-08T12:35:03;27.30;52.40
14138;DHT22;8199;51.310;9.466;2023-09-08T12:37:29;27.30;52.40
14138;DHT22;8199;51.310;9.466;2023-09-08T12:39:56;27.30;52.30
14138;DHT22;8199;51.310;9.466;2023-09-08T12:42:22;27.30;52.40
14138;DHT22;8199;51.310;9.466;2023-09-08T12:44:51;27.30;52.40
14138;DHT22;8199;51.310;9.466;2023-09-08T12:47:17;27.30;52.40
14138;DHT22;8199;51.310;9.466;2023-09-08T12:49:43;27.30;52.40
14138;DHT22;8199;51.310;9.466;2023-09-08T12:52:08;27.30;52.50
14138;DHT22;8199;51.310;9.466;2023-09-08T12:54:35;27.30;52.50
14138;DHT22;8199;51.310;9.466;2023-09-08T12:57:01;27.30;52.50
14138;DHT22;8199;51.310;9.466;2023-09-08T12:59:27;27.30;52.60
14138;DHT22;8199;51.310;9.466;2023-09-08T13:01:52;27.30;52.60
14138;DHT22;8199;51.310;9.466;2023-09-08T13:04:18;27.40;52.60
14138;DHT22;8199;51.310;9.466;2023-09-08T13:06:44;27.40;52.70
14138;DHT22;8199;51.310;9.466;2023-09-08T13:09:11;27.40;52.80
14138;DHT22;8199;51.310;9.466;2023-09-08T13:11:36;27.40;53.00
14138;DHT22;8199;51.310;9.466;2023-09-08T13:14:02;27.40;52.90
14138;DHT22;8199;51.310;9.466;2023-09-08T13:16:27;27.40;52.80
14138;DHT22;8199;51.310;9.466;2023-09-08T13:18:53;27.50;52.80
14138;DHT22;8199;51.310;9.466;2023-09-08T13:21:19;27.40;52.80
14138;DHT22;8199;51.310;9.466;2023-09-08T13:23:44;27.40;52.90
14138;DHT22;8199;51.310;9.466;2023-09-08T13:26:10;27.40;53.00
14138;DHT22;8199;51.310;9.466;2023-09-08T13:28:35;27.40;53.10
14138;DHT22;8199;51.310;9.466;2023-09-08T13:31:01;27.50;53.10
14138;DHT22;8199;51.310;9.466;2023-09-08T13:33:26;27.50;53.20
14138;DHT22;8199;51.310;9.466;2023-09-08T13:35:52;27.40;53.00
14138;DHT22;8199;51.310;9.466;2023-09-08T13:38:18;27.50;53.00
14138;DHT22;8199;51.310;9.466;2023-09-08T13:40:43;27.50;53.20
14138;DHT22;8199;51.310;9.466;2023-09-08T13:43:09;27.50;53.10
14138;DHT22;8199;51.310;9.466;2023-09-08T13:45:36;27.40;53.30
14138;DHT22;8199;51.310;9.466;2023-09-08T13:48:02;27.50;52.90
14138;DHT22;8199;51.310;9.466;2023-09-08T13:50:29;27.50;53.00
14138;DHT22;8199;51.310;9.466;2023-09-08T13:52:55;27.60;53.10
14138;DHT22;8199;51.310;9.466;2023-09-08T13:55:21;27.50;53.00
14138;DHT22;8199;51.310;9.466;2023-09-08T13:57:49;27.50;53.30
14138;DHT22;8199;51.310;9.466;2023-09-08T14:00:16;27.50;53.20
14138;DHT22;8199;51.310;9.466;2023-09-08T14:02:42;27.50;53.20
14138;DHT22;8199;51.310;9.466;2023-09-08T14:05:07;27.50;53.60
14138;DHT22;8199;51.310;9.466;2023-09-08T14:07:33;27.50;53.30
14138;DHT22;8199;51.310;9.466;2023-09-08T14:09:58;27.50;53.20
14138;DHT22;8199;51.310;9.466;2023-09-08T14:12:24;27.60;53.10
14138;DHT22;8199;51.310;9.466;2023-09-08T14:14:49;27.50;53.10
14138;DHT22;8199;51.310;9.466;2023-09-08T14:17:15;27.60;53.30
14138;DHT22;8199;51.310;9.466;2023-09-08T14:19:41;27.50;53.30
14138;DHT22;8199;51.310;9.466;2023-09-08T14:22:06;27.50;53.00
14138;DHT22;8199;51.310;9.466;2023-09-08T14:24:32;27.50;53.00
14138;DHT22;8199;51.310;9.466;2023-09-08T14:26:58;27.60;53.00
14138;DHT22;8199;51.310;9.466;2023-09-08T14:29:24;27.60;52.80
14138;DHT22;8199;51.310;9.466;2023-09-08T14:31:49;27.60;52.70
14138;DHT22;8199;51.310;9.466;2023-09-08T14:34:15;27.60;52.80
14138;DHT22;8199;51.310;9.466;2023-09-08T14:36:40;27.60;52.90
14138;DHT22;8199;51.310;9.466;2023-09-08T14:39:06;27.60;52.80
14138;DHT22;8199;51.310;9.466;2023-09-08T14:41:31;27.60;52.70
14138;DHT22;8199;51.310;9.466;2023-09-08T14:43:57;27.60;52.70
14138;DHT22;8199;51.310;9.466;2023-09-08T14:46:23;27.60;52.60
14138;DHT22;8199;51.310;9.466;2023-09-08T14:48:48;27.70;52.70
14138;DHT22;8199;51.310;9.466;2023-09-08T14:51:14;27.70;52.70
14138;DHT22;8199;51.310;9.466;2023-09-08T14:53:39;27.60;52.60
14138;DHT22;8199;51.310;9.466;2023-09-08T14:56:05;27.60;52.80
14138;DHT22;8199;51.310;9.466;2023-09-08T14:58:30;27.70;52.80
14138;DHT22;8199;51.310;9.466;2023-09-08T15:01:04;27.70;52.80
14138;DHT22;8199;51.310;9.466;2023-09-08T15:03:36;27.70;53.00
14138;DHT22;8199;51.310;9.466;2023-09-08T15:06:01;27.70;53.10
14138;DHT22;8199;51.310;9.466;2023-09-08T15:08:28;27.80;53.20
14138;DHT22;8199;51.310;9.466;2023-09-08T15:10:53;27.70;53.40
14138;DHT22;8199;51.310;9.466;2023-09-08T15:13:19;27.70;53.40
14138;DHT22;8199;51.310;9.466;2023-09-08T15:15:45;27.70;53.50
14138;DHT22;8199;51.310;9.466;2023-09-08T15:18:10;27.80;53.60
14138;DHT22;8199;51.310;9.466;2023-09-08T15:20:36;27.80;53.50
14138;DHT22;8199;51.310;9.466;2023-09-08T15:23:02;27.90;53.60
14138;DHT22;8199;51.310;9.466;2023-09-08T15:25:28;28.00;53.60
14138;DHT22;8199;51.310;9.466;2023-09-08T15:27:54;28.00;53.50
14138;DHT22;8199;51.310;9.466;2023-09-08T15:30:19;28.10;53.50
14138;DHT22;8199;51.310;9.466;2023-09-08T15:32:45;28.00;53.50
14138;DHT22;8199;51.310;9.466;2023-09-08T15:35:11;28.00;53.60
14138;DHT22;8199;51.310;9.466;2023-09-08T15:37:36;28.00;53.40
14138;DHT22;8199;51.310;9.466;2023-09-08T15:40:02;28.10;53.50
14138;DHT22;8199;51.310;9.466;2023-09-08T15:42:31;28.20;53.40
14138;DHT22;8199;51.310;9.466;2023-09-08T15:44:57;28.20;53.40